sensor_id;sensor_type;location;lat;lon;timestamp;pressure;altitude;pressure_sealevel;temperature;humidity
74103;BME280;62853;46.166;3.640;2023-04-24T00:01:47;99908.13;;;9.16;100.00
74103;BME280;62853;46.166;3.640;2023-04-24T00:04:12;99902.69;;;9.19;100.00
74103;BME280;62853;46.166;3.640;2023-04-24T00:06:41;99909.66;;;9.20;100.00
74103;BME280;62853;46.166;3.640;2023-04-24T00:09:08;99907.94;;;9.19;100.00
74103;BME280;62853;46.166;3.640;2023-04-24T00:11:35;99909.13;;;9.27;100.00
74103;BME280;62853;46.166;3.640;2023-04-24T00:14:01;99917.97;;;9.26;100.00
74103;BME280;62853;46.166;3.640;2023-04-24T00:16:26;99911.66;;;9.29;100.00
74103;BME280;62853;46.166;3.640;2023-04-24T00:18:52;99916.78;;;9.18;100.00
74103;BME280;62853;46.166;3.640;2023-04-24T00:21:21;99911.63;;;9.16;100.00
74103;BME280;62853;46.166;3.640;2023-04-24T00:23:47;99918.47;;;9.19;100.00
74103;BME280;62853;46.166;3.640;2023-04-24T00:26:13;99921.72;;;9.22;100.00
74103;BME280;62853;46.166;3.640;2023-04-24T00:28:39;99919.50;;;9.16;100.00
74103;BME280;62853;46.166;3.640;2023-04-24T00:31:04;99921.53;;;9.25;100.00
74103;BME280;62853;46.166;3.640;2023-04-24T00:33:30;99929.97;;;9.30;100.00
74103;BME280;62853;46.166;3.640;2023-04-24T00:35:55;99927.75;;;9.24;100.00
74103;BME280;62853;46.166;3.640;2023-04-24T00:38:20;99926.41;;;9.31;100.00
74103;BME280;62853;46.166;3.640;2023-04-24T00:40:47;99923.53;;;9.22;100.00
74103;BME280;62853;46.166;3.640;2023-04-24T00:43:13;99925.97;;;9.25;100.00
74103;BME280;62853;46.166;3.640;2023-04-24T00:45:38;99931.13;;;9.26;100.00
74103;BME280;62853;46.166;3.640;2023-04-24T00:48:04;99926.66;;;9.14;100.00
74103;BME280;62853;46.166;3.640;2023-04-24T00:50:30;99921.72;;;9.22;100.00
74103;BME280;62853;46.166;3.640;2023-04-24T00:52:55;99934.72;;;9.11;100.00
74103;BME280;62853;46.166;3.640;2023-04-24T00:55:21;99932.28;;;9.08;100.00
74103;BME280;62853;46.166;3.640;2023-04-24T00:57:46;99927.13;;;9.06;100.00
74103;BME280;62853;46.166;3.640;2023-04-24T01:00:13;99939.56;;;9.17;100.00
74103;BME280;62853;46.166;3.640;2023-04-24T01:02:40;99928.91;;;9.06;100.00
74103;BME280;62853;46.166;3.640;2023-04-24T01:05:13;99933.84;;;9.10;100.00
74103;BME280;62853;46.166;3.640;2023-04-24T01:07:41;99921.22;;;9.03;100.00
74103;BME280;62853;46.166;3.640;2023-04-24T01:10:11;99923.91;;;9.16;100.00
74103;BME280;62853;46.166;3.640;2023-04-24T01:12:37;99916.16;;;9.00;100.00
74103;BME280;62853;46.166;3.640;2023-04-24T01:15:03;99926.56;;;9.01;100.00
74103;BME280;62853;46.166;3.640;2023-04-24T01:17:29;99925.53;;;9.04;100.00
74103;BME280;62853;46.166;3.640;2023-04-24T01:19:54;99924.22;;;9.11;100.00
74103;BME280;62853;46.166;3.640;2023-04-24T01:22:21;99932.09;;;9.11;100.00
74103;BME280;62853;46.166;3.640;2023-04-24T01:24:47;99924.69;;;9.03;100.00
74103;BME280;62853;46.166;3.640;2023-04-24T01:27:12;99926.84;;;9.11;100.00
74103;BME280;62853;46.166;3.640;2023-04-24T01:29:38;99934.63;;;9.12;100.00
74103;BME280;62853;46.166;3.640;2023-04-24T01:32:05;99926.47;;;9.03;100.00
74103;BME280;62853;46.166;3.640;2023-04-24T01:34:31;99933.84;;;9.10;100.00
74103;BME280;62853;46.166;3.640;2023-04-24T01:36:56;99928.50;;;9.12;100.00
74103;BME280;62853;46.166;3.640;2023-04-24T01:39:23;99933.75;;;9.12;100.00
74103;BME280;62853;46.166;3.640;2023-04-24T01:41:51;99929.00;;;9.04;100.00
74103;BME280;62853;46.166;3.640;2023-04-24T01:44:17;99922.81;;;9.05;100.00
74103;BME280;62853;46.166;3.640;2023-04-24T01:46:43;99927.97;;;9.07;100.00
74103;BME280;62853;46.166;3.640;2023-04-24T01:49:08;99925.44;;;9.05;100.00
74103;BME280;62853;46.166;3.640;2023-04-24T01:51:34;99926.19;;;9.07;100.00
74103;BME280;62853;46.166;3.640;2023-04-24T01:53:59;99925.06;;;9.11;100.00
74103;BME280;62853;46.166;3.640;2023-04-24T01:56:25;99929.66;;;9.08;100.00
74103;BME280;62853;46.166;3.640;2023-04-24T01:58:52;99931.31;;;9.09;100.00
74103;BME280;62853;46.166;3.640;2023-04-24T02:01:19;99930.13;;;9.00;100.00
74103;BME280;62853;46.166;3.640;2023-04-24T02:03:45;99929.84;;;9.05;100.00
74103;BME280;62853;46.166;3.640;2023-04-24T02:06:11;99925.94;;;8.98;100.00
74103;BME280;62853;46.166;3.640;2023-04-24T02:08:36;99933.22;;;9.07;100.00
74103;BME280;62853;46.166;3.640;2023-04-24T02:11:01;99934.38;;;9.03;100.00
74103;BME280;62853;46.166;3.640;2023-04-24T02:13:27;99934.91;;;9.08;100.00
74103;BME280;62853;46.166;3.640;2023-04-24T02:15:53;99930.22;;;8.99;100.00
74103;BME280;62853;46.166;3.640;2023-04-24T02:18:18;99929.00;;;9.04;100.00
74103;BME280;62853;46.166;3.640;2023-04-24T02:20:44;99933.81;;;8.98;100.00
74103;BME280;62853;46.166;3.640;2023-04-24T02:23:09;99932.94;;;8.97;100.00
74103;BME280;62853;46.166;3.640;2023-04-24T02:25:34;99937.81;;;9.03;100.00
74103;BME280;62853;46.166;3.640;2023-04-24T02:28:00;99936.53;;;8.96;100.00
74103;BME280;62853;46.166;3.640;2023-04-24T02:30:25;99934.44;;;9.01;100.00
74103;BME280;62853;46.166;3.640;2023-04-24T02:32:51;99931.09;;;8.99;100.00
74103;BME280;62853;46.166;3.640;2023-04-24T02:35:16;99932.00;;;8.98;100.00
74103;BME280;62853;46.166;3.640;2023-04-24T02:37:42;99935.88;;;8.92;100.00
74103;BME280;62853;46.166;3.640;2023-04-24T02:40:08;99929.56;;;8.95;100.00
74103;BME280;62853;46.166;3.640;2023-04-24T02:42:34;99922.81;;;9.05;100.00
74103;BME280;62853;46.166;3.640;2023-04-24T02:45:00;99917.66;;;9.04;100.00
74103;BME280;62853;46.166;3.640;2023-04-24T02:47:25;99918.44;;;8.91;100.00
74103;BME280;62853;46.166;3.640;2023-04-24T02:49:50;99920.78;;;8.96;100.00
74103;BME280;62853;46.166;3.640;2023-04-24T02:52:16;99917.09;;;8.99;100.00
74103;BME280;62853;46.166;3.640;2023-04-24T02:54:42;99916.72;;;9.05;100.00
74103;BME280;62853;46.166;3.640;2023-04-24T02:57:08;99916.34;;;8.97;100.00
74103;BME280;62853;46.166;3.640;2023-04-24T02:59:33;99922.91;;;9.04;100.00
74103;BME280;62853;46.166;3.640;2023-04-24T03:01:59;99922.16;;;9.02;100.00
74103;BME280;62853;46.166;3.640;2023-04-24T03:04:24;99919.34;;;9.05;100.00
74103;BME280;62853;46.166;3.640;2023-04-24T03:06:50;99916.25;;;8.98;100.00
74103;BME280;62853;46.166;3.640;2023-04-24T03:09:18;99918.06;;;8.98;100.00
74103;BME280;62853;46.166;3.640;2023-04-24T03:11:43;99924.97;;;8.99;100.00
74103;BME280;62853;46.166;3.640;2023-04-24T03:14:09;99918.44;;;8.91;100.00
74103;BME280;62853;46.166;3.640;2023-04-24T03:16:34;99919.94;;;8.96;100.00
74103;BME280;62853;46.166;3.640;2023-04-24T03:19:00;99925.75;;;8.86;100.00
74103;BME280;62853;46.166;3.640;2023-04-24T03:21:25;99921.78;;;8.93;100.00
74103;BME280;62853;46.166;3.640;2023-04-24T03:23:51;99914.59;;;8.83;100.00
74103;BME280;62853;46.166;3.640;2023-04-24T03:26:17;99928.00;;;8.92;100.00
74103;BME280;62853;46.166;3.640;2023-04-24T03:28:42;99925.00;;;8.84;100.00
74103;BME280;62853;46.166;3.640;2023-04-24T03:31:07;99921.13;;;8.90;100.00
74103;BME280;62853;46.166;3.640;2023-04-24T03:33:33;99920.31;;;8.89;100.00
74103;BME280;62853;46.166;3.640;2023-04-24T03:35:58;99926.78;;;8.84;100.00
74103;BME280;62853;46.166;3.640;2023-04-24T03:38:24;99921.00;;;8.79;100.00
74103;BME280;62853;46.166;3.640;2023-04-24T03:40:49;99922.38;;;8.84;100.00
74103;BME280;62853;46.166;3.640;2023-04-24T03:43:15;99925.09;;;8.83;100.00
74103;BME280;62853;46.166;3.640;2023-04-24T03:45:40;99918.59;;;8.88;100.00
74103;BME280;62853;46.166;3.640;2023-04-24T03:48:05;99915.75;;;8.79;100.00
74103;BME280;62853;46.166;3.640;2023-04-24T03:50:31;99913.66;;;8.84;100.00
74103;BME280;62853;46.166;3.640;2023-04-24T03:52:56;99924.06;;;8.85;100.00
74103;BME280;62853;46.166;3.640;2023-04-24T03:55:22;99917.97;;;8.85;100.00
74103;BME280;62853;46.166;3.640;2023-04-24T03:57:47;99920.03;;;8.80;100.00
74103;BME280;62853;46.166;3.640;2023-04-24T04:00:12;99906.91;;;8.80;100.00
74103;BME280;62853;46.166;3.640;2023-04-24T04:02:39;99926.53;;;8.74;100.00
74103;BME280;62853;46.166;3.640;2023-04-24T04:05:04;99923.31;;;8.83;100.00
74103;BME280;62853;46.166;3.640;2023-04-24T04:07:30;99921.53;;;8.84;100.00
74103;BME280;62853;46.166;3.640;2023-04-24T04:09:55;99929.88;;;8.76;100.00
74103;BME280;62853;46.166;3.640;2023-04-24T04:12:21;99923.72;;;8.77;100.00
74103;BME280;62853;46.166;3.640;2023-04-24T04:14:46;99929.97;;;8.74;100.00
74103;BME280;62853;46.166;3.640;2023-04-24T04:17:11;99931.38;;;8.80;100.00
74103;BME280;62853;46.166;3.640;2023-04-24T04:19:37;99932.69;;;8.73;100.00
74103;BME280;62853;46.166;3.640;2023-04-24T04:22:02;99935.97;;;8.77;100.00
74103;BME280;62853;46.166;3.640;2023-04-24T04:24:28;99933.28;;;8.64;100.00
74103;BME280;62853;46.166;3.640;2023-04-24T04:26:53;99931.94;;;8.71;100.00
74103;BME280;62853;46.166;3.640;2023-04-24T04:29:22;99938.78;;;8.73;100.00
74103;BME280;62853;46.166;3.640;2023-04-24T04:31:47;99942.53;;;8.69;100.00
74103;BME280;62853;46.166;3.640;2023-04-24T04:34:13;99934.09;;;8.50;100.00
74103;BME280;62853;46.166;3.640;2023-04-24T04:36:39;99935.06;;;8.49;100.00
74103;BME280;62853;46.166;3.640;2023-04-24T04:39:06;99933.06;;;8.52;100.00
74103;BME280;62853;46.166;3.640;2023-04-24T04:41:32;99945.84;;;8.59;100.00
74103;BME280;62853;46.166;3.640;2023-04-24T04:44:00;99943.97;;;8.61;100.00
74103;BME280;62853;46.166;3.640;2023-04-24T04:46:25;99941.31;;;8.46;100.00
74103;BME280;62853;46.166;3.640;2023-04-24T04:48:52;99942.56;;;8.55;100.00
74103;BME280;62853;46.166;3.640;2023-04-24T04:51:17;99940.78;;;8.55;100.00
74103;BME280;62853;46.166;3.640;2023-04-24T04:53:43;99942.19;;;8.47;100.00
74103;BME280;62853;46.166;3.640;2023-04-24T04:56:08;99954.06;;;8.52;100.00
74103;BME280;62853;46.166;3.640;2023-04-24T04:58:34;99955.38;;;8.45;100.00
74103;BME280;62853;46.166;3.640;2023-04-24T05:00:59;99960.06;;;8.54;100.00
74103;BME280;62853;46.166;3.640;2023-04-24T05:03:24;99949.19;;;8.46;100.00
74103;BME280;62853;46.166;3.640;2023-04-24T05:05:50;99957.63;;;8.51;100.00
74103;BME280;62853;46.166;3.640;2023-04-24T05:08:15;99961.84;;;8.54;100.00
74103;BME280;62853;46.166;3.640;2023-04-24T05:10:41;99946.84;;;8.42;100.00
74103;BME280;62853;46.166;3.640;2023-04-24T05:13:06;99952.69;;;8.47;100.00
74103;BME280;62853;46.166;3.640;2023-04-24T05:15:32;99966.97;;;8.41;100.00
74103;BME280;62853;46.166;3.640;2023-04-24T05:17:57;99951.81;;;8.46;100.00
74103;BME280;62853;46.166;3.640;2023-04-24T05:20:22;99960.63;;;8.45;100.00
74103;BME280;62853;46.166;3.640;2023-04-24T05:22:48;99966.97;;;8.41;100.00
74103;BME280;62853;46.166;3.640;2023-04-24T05:25:13;99983.47;;;8.43;100.00
74103;BME280;62853;46.166;3.640;2023-04-24T05:27:39;99986.28;;;8.40;100.00
74103;BME280;62853;46.166;3.640;2023-04-24T05:30:05;99991.53;;;8.40;100.00
74103;BME280;62853;46.166;3.640;2023-04-24T05:32:30;99996.63;;;8.27;100.00
74103;BME280;62853;46.166;3.640;2023-04-24T05:34:56;99996.22;;;8.35;100.00
74103;BME280;62853;46.166;3.640;2023-04-24T05:37:21;100009.50;;;8.32;100.00
74103;BME280;62853;46.166;3.640;2023-04-24T05:39:46;100008.38;;;8.36;100.00
74103;BME280;62853;46.166;3.640;2023-04-24T05:42:12;100013.69;;;8.20;100.00
74103;BME280;62853;46.166;3.640;2023-04-24T05:44:37;100006.66;;;8.20;100.00
74103;BME280;62853;46.166;3.640;2023-04-24T05:47:03;100015.84;;;8.28;100.00
74103;BME280;62853;46.166;3.640;2023-04-24T05:49:28;100013.78;;;8.18;100.00
74103;BME280;62853;46.166;3.640;2023-04-24T05:51:57;100000.09;;;8.13;100.00
74103;BME280;62853;46.166;3.640;2023-04-24T05:54:22;100001.94;;;8.11;100.00
74103;BME280;62853;46.166;3.640;2023-04-24T05:56:49;100012.53;;;8.10;100.00
74103;BME280;62853;46.166;3.640;2023-04-24T05:59:19;100023.28;;;8.05;100.00
74103;BME280;62853;46.166;3.640;2023-04-24T06:01:44;100022.16;;;8.09;100.00
74103;BME280;62853;46.166;3.640;2023-04-24T06:04:10;100012.69;;;8.07;100.00
74103;BME280;62853;46.166;3.640;2023-04-24T06:06:44;100031.81;;;8.09;100.00
74103;BME280;62853;46.166;3.640;2023-04-24T06:09:12;100032.69;;;7.93;100.00
74103;BME280;62853;46.166;3.640;2023-04-24T06:11:37;100031.56;;;7.97;100.00
74103;BME280;62853;46.166;3.640;2023-04-24T06:14:03;100051.72;;;7.97;100.00
74103;BME280;62853;46.166;3.640;2023-04-24T06:16:30;100064.75;;;7.98;100.00
74103;BME280;62853;46.166;3.640;2023-04-24T06:18:56;100058.06;;;7.93;100.00
74103;BME280;62853;46.166;3.640;2023-04-24T06:21:22;100060.50;;;7.96;100.00
74103;BME280;62853;46.166;3.640;2023-04-24T06:23:47;100065.94;;;7.93;100.00
74103;BME280;62853;46.166;3.640;2023-04-24T06:26:15;100070.66;;;8.02;100.00
74103;BME280;62853;46.166;3.640;2023-04-24T06:28:41;100081.31;;;7.99;100.00
74103;BME280;62853;46.166;3.640;2023-04-24T06:31:06;100093.06;;;8.08;100.00
74103;BME280;62853;46.166;3.640;2023-04-24T06:33:42;100083.50;;;8.07;100.00
74103;BME280;62853;46.166;3.640;2023-04-24T06:36:07;100098.13;;;8.11;100.00
74103;BME280;62853;46.166;3.640;2023-04-24T06:38:32;100107.53;;;7.99;100.00
74103;BME280;62853;46.166;3.640;2023-04-24T06:40:59;100107.94;;;8.07;100.00
74103;BME280;62853;46.166;3.640;2023-04-24T06:43:24;100117.34;;;8.11;100.00
74103;BME280;62853;46.166;3.640;2023-04-24T06:45:50;100118.28;;;8.10;100.00
74103;BME280;62853;46.166;3.640;2023-04-24T06:48:16;100128.84;;;8.09;100.00
74103;BME280;62853;46.166;3.640;2023-04-24T06:50:41;100129.09;;;8.04;100.00
74103;BME280;62853;46.166;3.640;2023-04-24T06:53:09;100143.84;;;8.07;100.00
74103;BME280;62853;46.166;3.640;2023-04-24T06:55:42;100160.50;;;8.06;100.00
74103;BME280;62853;46.166;3.640;2023-04-24T06:58:08;100163.78;;;8.09;100.00
74103;BME280;62853;46.166;3.640;2023-04-24T07:00:36;100171.41;;;8.14;100.00
74103;BME280;62853;46.166;3.640;2023-04-24T07:03:02;100171.94;;;8.05;100.00
74103;BME280;62853;46.166;3.640;2023-04-24T07:05:28;100185.03;;;8.05;100.00
74103;BME280;62853;46.166;3.640;2023-04-24T07:07:54;100179.53;;;7.93;100.00
74103;BME280;62853;46.166;3.640;2023-04-24T07:10:19;100198.91;;;8.07;100.00
74103;BME280;62853;46.166;3.640;2023-04-24T07:12:48;100203.84;;;8.13;100.00
74103;BME280;62853;46.166;3.640;2023-04-24T07:15:14;100216.84;;;8.14;100.00
74103;BME280;62853;46.166;3.640;2023-04-24T07:17:39;100219.22;;;8.19;100.00
74103;BME280;62853;46.166;3.640;2023-04-24T07:20:08;100222.28;;;8.11;100.00
74103;BME280;62853;46.166;3.640;2023-04-24T07:22:35;100232.56;;;8.14;100.00
74103;BME280;62853;46.166;3.640;2023-04-24T07:25:03;100235.72;;;8.21;100.00
74103;BME280;62853;46.166;3.640;2023-04-24T07:27:30;100245.97;;;8.26;100.00
74103;BME280;62853;46.166;3.640;2023-04-24T07:29:55;100250.22;;;8.28;100.00
74103;BME280;62853;46.166;3.640;2023-04-24T07:32:20;100247.22;;;8.18;100.00
74103;BME280;62853;46.166;3.640;2023-04-24T07:34:48;100260.09;;;8.23;100.00
74103;BME280;62853;46.166;3.640;2023-04-24T07:37:13;100276.56;;;8.09;100.00
74103;BME280;62853;46.166;3.640;2023-04-24T07:39:39;100284.19;;;8.14;100.00
74103;BME280;62853;46.166;3.640;2023-04-24T07:42:05;100288.53;;;8.15;100.00
74103;BME280;62853;46.166;3.640;2023-04-24T07:44:30;100294.75;;;8.12;100.00
74103;BME280;62853;46.166;3.640;2023-04-24T07:46:57;100320.06;;;8.13;100.00
74103;BME280;62853;46.166;3.640;2023-04-24T07:49:24;100317.41;;;7.97;100.00
74103;BME280;62853;46.166;3.640;2023-04-24T07:51:50;100319.88;;;8.00;100.00
74103;BME280;62853;46.166;3.640;2023-04-24T07:54:15;100324.66;;;8.10;100.00
74103;BME280;62853;46.166;3.640;2023-04-24T07:56:43;100336.97;;;8.08;100.00
74103;BME280;62853;46.166;3.640;2023-04-24T07:59:09;100331.66;;;8.09;100.00
74103;BME280;62853;46.166;3.640;2023-04-24T08:01:35;100333.06;;;7.99;100.00
74103;BME280;62853;46.166;3.640;2023-04-24T08:04:01;100350.78;;;8.11;100.00
74103;BME280;62853;46.166;3.640;2023-04-24T08:06:27;100353.84;;;8.19;100.00
74103;BME280;62853;46.166;3.640;2023-04-24T08:08:57;100355.22;;;8.27;100.00
74103;BME280;62853;46.166;3.640;2023-04-24T08:11:23;100359.13;;;8.35;100.00
74103;BME280;62853;46.166;3.640;2023-04-24T08:13:49;100364.69;;;8.29;100.00
74103;BME280;62853;46.166;3.640;2023-04-24T08:16:14;100360.63;;;8.24;100.00
74103;BME280;62853;46.166;3.640;2023-04-24T08:18:40;100375.47;;;8.25;100.00
74103;BME280;62853;46.166;3.640;2023-04-24T08:21:06;100382.31;;;8.27;100.00
74103;BME280;62853;46.166;3.640;2023-04-24T08:23:31;100391.69;;;8.31;100.00
74103;BME280;62853;46.166;3.640;2023-04-24T08:25:59;100400.59;;;8.29;100.00
74103;BME280;62853;46.166;3.640;2023-04-24T08:28:24;100404.31;;;8.25;100.00
74103;BME280;62853;46.166;3.640;2023-04-24T08:30:50;100415.22;;;8.33;100.00
74103;BME280;62853;46.166;3.640;2023-04-24T08:33:23;100424.06;;;8.32;100.00
74103;BME280;62853;46.166;3.640;2023-04-24T08:35:48;100413.94;;;8.42;100.00
74103;BME280;62853;46.166;3.640;2023-04-24T08:38:19;100403.28;;;8.45;100.00
74103;BME280;62853;46.166;3.640;2023-04-24T08:40:44;100415.41;;;8.63;100.00
74103;BME280;62853;46.166;3.640;2023-04-24T08:43:12;100417.22;;;8.63;100.00
74103;BME280;62853;46.166;3.640;2023-04-24T08:45:37;100429.09;;;8.86;100.00
74103;BME280;62853;46.166;3.640;2023-04-24T08:48:04;100433.31;;;8.88;100.00
74103;BME280;62853;46.166;3.640;2023-04-24T08:50:29;100439.69;;;8.84;100.00
74103;BME280;62853;46.166;3.640;2023-04-24T08:52:57;100429.88;;;8.88;100.00
74103;BME280;62853;46.166;3.640;2023-04-24T08:55:24;100441.31;;;9.19;100.00
74103;BME280;62853;46.166;3.640;2023-04-24T08:57:51;100447.66;;;9.30;100.00
74103;BME280;62853;46.166;3.640;2023-04-24T09:00:19;100455.97;;;9.39;100.00
74103;BME280;62853;46.166;3.640;2023-04-24T09:02:45;100451.13;;;9.15;100.00
74103;BME280;62853;46.166;3.640;2023-04-24T09:05:13;100459.66;;;8.71;100.00
74103;BME280;62853;46.166;3.640;2023-04-24T09:07:40;100465.28;;;8.47;100.00
74103;BME280;62853;46.166;3.640;2023-04-24T09:10:08;100477.91;;;8.39;100.00
74103;BME280;62853;46.166;3.640;2023-04-24T09:12:34;100477.81;;;8.41;100.00
74103;BME280;62853;46.166;3.640;2023-04-24T09:15:00;100479.63;;;8.40;100.00
74103;BME280;62853;46.166;3.640;2023-04-24T09:17:28;100484.03;;;8.57;100.00
74103;BME280;62853;46.166;3.640;2023-04-24T09:19:54;100496.34;;;8.72;100.00
74103;BME280;62853;46.166;3.640;2023-04-24T09:22:20;100492.97;;;8.86;100.00
74103;BME280;62853;46.166;3.640;2023-04-24T09:24:45;100505.47;;;9.15;100.00
74103;BME280;62853;46.166;3.640;2023-04-24T09:27:11;100504.81;;;9.27;100.00
74103;BME280;62853;46.166;3.640;2023-04-24T09:29:37;100502.69;;;9.34;100.00
74103;BME280;62853;46.166;3.640;2023-04-24T09:32:22;100501.34;;;9.58;100.00
74103;BME280;62853;46.166;3.640;2023-04-24T09:35:05;100499.97;;;9.51;100.00
74103;BME280;62853;46.166;3.640;2023-04-24T09:37:38;100501.16;;;9.45;100.00
74103;BME280;62853;46.166;3.640;2023-04-24T09:42:39;100521.13;;;9.00;100.00
74103;BME280;62853;46.166;3.640;2023-04-24T09:45:11;100518.94;;;8.75;100.00
74103;BME280;62853;46.166;3.640;2023-04-24T09:47:40;100528.38;;;8.79;100.00
74103;BME280;62853;46.166;3.640;2023-04-24T09:50:16;100542.56;;;8.75;100.00
74103;BME280;62853;46.166;3.640;2023-04-24T09:52:45;100551.50;;;8.88;100.00
74103;BME280;62853;46.166;3.640;2023-04-24T09:55:20;100549.94;;;9.02;100.00
74103;BME280;62853;46.166;3.640;2023-04-24T09:57:54;100541.50;;;9.12;100.00
74103;BME280;62853;46.166;3.640;2023-04-24T10:02:56;100551.34;;;9.73;100.00
74103;BME280;62853;46.166;3.640;2023-04-24T10:05:41;100553.53;;;10.12;100.00
74103;BME280;62853;46.166;3.640;2023-04-24T10:08:11;100548.69;;;10.04;100.00
74103;BME280;62853;46.166;3.640;2023-04-24T10:10:44;100553.31;;;9.85;100.00
74103;BME280;62853;46.166;3.640;2023-04-24T10:13:11;100555.09;;;9.53;100.00
74103;BME280;62853;46.166;3.640;2023-04-24T10:15:38;100562.22;;;9.35;100.00
74103;BME280;62853;46.166;3.640;2023-04-24T10:18:06;100565.31;;;9.25;100.00
74103;BME280;62853;46.166;3.640;2023-04-24T10:20:33;100563.00;;;9.03;100.00
74103;BME280;62853;46.166;3.640;2023-04-24T10:22:59;100570.66;;;9.24;100.00
74103;BME280;62853;46.166;3.640;2023-04-24T10:25:27;100572.06;;;9.47;100.00
74103;BME280;62853;46.166;3.640;2023-04-24T10:27:56;100576.97;;;9.53;100.00
74103;BME280;62853;46.166;3.640;2023-04-24T10:30:32;100576.56;;;9.45;100.00
74103;BME280;62853;46.166;3.640;2023-04-24T10:33:02;100569.50;;;9.45;100.00
74103;BME280;62853;46.166;3.640;2023-04-24T10:35:33;100569.00;;;9.39;100.00
74103;BME280;62853;46.166;3.640;2023-04-24T10:38:07;100576.72;;;9.42;100.00
74103;BME280;62853;46.166;3.640;2023-04-24T10:40:37;100569.81;;;9.39;100.00
74103;BME280;62853;46.166;3.640;2023-04-24T10:43:04;100571.63;;;9.39;100.00
74103;BME280;62853;46.166;3.640;2023-04-24T10:45:36;100587.47;;;9.21;100.00
74103;BME280;62853;46.166;3.640;2023-04-24T10:48:03;100590.31;;;9.17;100.00
74103;BME280;62853;46.166;3.640;2023-04-24T10:50:41;100590.00;;;9.23;100.00
74103;BME280;62853;46.166;3.640;2023-04-24T10:53:17;100591.81;;;9.54;100.00
74103;BME280;62853;46.166;3.640;2023-04-24T10:58:09;100586.28;;;9.75;100.00
74103;BME280;62853;46.166;3.640;2023-04-24T11:00:40;100618.06;;;9.72;100.00
74103;BME280;62853;46.166;3.640;2023-04-24T11:03:22;100608.97;;;9.61;100.00
74103;BME280;62853;46.166;3.640;2023-04-24T11:05:55;100620.00;;;9.68;100.00
74103;BME280;62853;46.166;3.640;2023-04-24T11:13:23;100614.41;;;9.58;100.00
74103;BME280;62853;46.166;3.640;2023-04-24T11:16:14;100621.59;;;9.71;100.00
74103;BME280;62853;46.166;3.640;2023-04-24T11:18:43;100619.00;;;9.86;100.00
74103;BME280;62853;46.166;3.640;2023-04-24T11:21:18;100625.25;;;10.00;100.00
74103;BME280;62853;46.166;3.640;2023-04-24T11:23:45;100624.81;;;10.08;100.00
74103;BME280;62853;46.166;3.640;2023-04-24T11:26:18;100640.09;;;10.17;100.00
74103;BME280;62853;46.166;3.640;2023-04-24T11:28:49;100642.91;;;9.98;100.00
74103;BME280;62853;46.166;3.640;2023-04-24T11:31:34;100648.16;;;9.98;100.00
74103;BME280;62853;46.166;3.640;2023-04-24T11:34:07;100641.16;;;9.98;100.00
74103;BME280;62853;46.166;3.640;2023-04-24T11:36:34;100637.06;;;10.09;100.00
74103;BME280;62853;46.166;3.640;2023-04-24T11:39:00;100641.81;;;10.34;100.00
74103;BME280;62853;46.166;3.640;2023-04-24T11:41:28;100642.91;;;10.46;100.00
74103;BME280;62853;46.166;3.640;2023-04-24T11:43:56;100650.00;;;10.43;100.00
74103;BME280;62853;46.166;3.640;2023-04-24T11:46:22;100659.78;;;10.41;100.00
74103;BME280;62853;46.166;3.640;2023-04-24T11:48:48;100672.03;;;10.42;100.00
74103;BME280;62853;46.166;3.640;2023-04-24T11:51:14;100679.97;;;10.25;100.00
74103;BME280;62853;46.166;3.640;2023-04-24T11:54:07;100677.63;;;10.20;100.00
74103;BME280;62853;46.166;3.640;2023-04-24T11:56:31;100669.81;;;10.35;100.00
74103;BME280;62853;46.166;3.640;2023-04-24T11:59:23;100676.44;;;10.26;100.00
74103;BME280;62853;46.166;3.640;2023-04-24T12:01:49;100668.22;;;10.32;100.00
74103;BME280;62853;46.166;3.640;2023-04-24T12:04:17;100687.28;;;10.52;100.00
74103;BME280;62853;46.166;3.640;2023-04-24T12:07:03;100677.59;;;10.68;100.00
74103;BME280;62853;46.166;3.640;2023-04-24T12:09:48;100689.59;;;10.88;100.00
74103;BME280;62853;46.166;3.640;2023-04-24T12:12:15;100675.44;;;11.05;100.00
74103;BME280;62853;46.166;3.640;2023-04-24T12:14:53;100685.16;;;11.33;100.00
74103;BME280;62853;46.166;3.640;2023-04-24T12:17:34;100682.06;;;11.41;100.00
74103;BME280;62853;46.166;3.640;2023-04-24T12:20:09;100680.09;;;11.30;100.00
74103;BME280;62853;46.166;3.640;2023-04-24T12:25:16;100689.94;;;11.12;100.00
74103;BME280;62853;46.166;3.640;2023-04-24T12:27:43;100693.53;;;11.11;100.00
74103;BME280;62853;46.166;3.640;2023-04-24T12:30:18;100699.56;;;11.28;100.00
74103;BME280;62853;46.166;3.640;2023-04-24T12:32:46;100718.97;;;11.27;100.00
74103;BME280;62853;46.166;3.640;2023-04-24T12:35:12;100720.22;;;11.05;100.00
74103;BME280;62853;46.166;3.640;2023-04-24T12:37:38;100721.31;;;10.87;100.00
74103;BME280;62853;46.166;3.640;2023-04-24T12:40:09;100716.63;;;10.92;100.00
74103;BME280;62853;46.166;3.640;2023-04-24T12:42:44;100718.34;;;11.07;100.00
74103;BME280;62853;46.166;3.640;2023-04-24T12:45:10;100725.81;;;11.15;100.00
74103;BME280;62853;46.166;3.640;2023-04-24T12:47:38;100726.59;;;11.01;100.00
74103;BME280;62853;46.166;3.640;2023-04-24T12:50:04;100730.94;;;11.02;100.00
74103;BME280;62853;46.166;3.640;2023-04-24T12:52:30;100731.50;;;10.93;100.00
74103;BME280;62853;46.166;3.640;2023-04-24T12:54:58;100740.50;;;10.89;100.00
74103;BME280;62853;46.166;3.640;2023-04-24T12:57:25;100740.41;;;10.90;100.00
74103;BME280;62853;46.166;3.640;2023-04-24T12:59:53;100731.22;;;10.97;100.00
74103;BME280;62853;46.166;3.640;2023-04-24T13:02:19;100728.72;;;10.80;100.00
74103;BME280;62853;46.166;3.640;2023-04-24T13:04:46;100734.50;;;10.71;100.00
74103;BME280;62853;46.166;3.640;2023-04-24T13:07:12;100738.66;;;10.75;100.00
74103;BME280;62853;46.166;3.640;2023-04-24T13:09:39;100741.38;;;10.73;100.00